Time;durP1;ratioP1;P1;durP2;ratioP2;P2;SDS_P1;SDS_P2;PMS_P1;PMS_P2;Temp;Humidity;BMP_temperature;BMP_pressure;BME280_temperature;BME280_humidity;BME280_pressure;Samples;Min_cycle;Max_cycle;Signal;HPM_P1;HPM_P2
2024/01/10 00:01:14;;;;;;;9.77;4.25;;;;;;;2.77;100.00;103331.81;5053090;28;20171;-70
2024/01/10 00:03:41;;;;;;;8.48;3.65;;;;;;;2.58;100.00;103321.63;5057590;28;20053;-70
2024/01/10 00:06:08;;;;;;;9.73;4.20;;;;;;;2.73;100.00;103326.50;5068522;28;20478;-70
2024/01/10 00:08:35;;;;;;;7.93;3.47;;;;;;;2.71;100.00;103329.03;5068180;28;20162;-70
2024/01/10 00:11:02;;;;;;;8.57;3.47;;;;;;;2.79;100.00;103318.94;5060820;28;20102;-70
2024/01/10 00:13:32;;;;;;;8.40;3.42;;;;;;;2.69;100.00;103325.47;5063066;28;20048;-70
2024/01/10 00:15:58;;;;;;;9.65;4.38;;;;;;;2.66;100.00;103313.31;5050982;28;20055;-70
2024/01/10 00:18:25;;;;;;;9.10;3.85;;;;;;;2.56;100.00;103300.00;5063056;28;20175;-70
2024/01/10 00:20:55;;;;;;;9.75;4.07;;;;;;;2.58;100.00;103303.50;5070066;28;20165;-70
2024/01/10 00:23:22;;;;;;;8.50;3.50;;;;;;;2.63;100.00;103315.78;5066890;28;20490;-70
2024/01/10 00:25:49;;;;;;;8.77;3.72;;;;;;;2.59;100.00;103303.56;5066293;28;20058;-70
2024/01/10 00:28:19;;;;;;;9.25;3.30;;;;;;;2.66;100.00;103307.28;5055305;28;20136;-70
2024/01/10 00:30:47;;;;;;;9.15;3.83;;;;;;;2.65;100.00;103308.94;5064226;28;20048;-70
2024/01/10 00:33:15;;;;;;;8.73;3.85;;;;;;;2.62;100.00;103306.28;5065758;28;20049;-70
2024/01/10 00:35:41;;;;;;;9.80;3.95;;;;;;;2.86;100.00;103297.63;5072346;28;20079;-70
2024/01/10 00:38:08;;;;;;;9.90;4.30;;;;;;;2.88;100.00;103298.56;5064581;28;20045;-70
2024/01/10 00:40:35;;;;;;;8.27;3.40;;;;;;;2.88;100.00;103288.19;5068665;28;20045;-70
2024/01/10 00:43:03;;;;;;;9.27;3.95;;;;;;;3.13;100.00;103309.78;5059985;28;20048;-70
2024/01/10 00:45:30;;;;;;;8.70;3.45;;;;;;;3.01;100.00;103298.19;5065987;28;20052;-70
2024/01/10 00:47:57;;;;;;;9.18;4.03;;;;;;;2.99;100.00;103307.59;5061165;28;20056;-70
2024/01/10 00:50:24;;;;;;;8.65;3.65;;;;;;;3.06;100.00;103300.03;5080768;28;20040;-70
2024/01/10 00:52:51;;;;;;;8.98;3.47;;;;;;;2.97;100.00;103290.22;5072583;28;20059;-70
2024/01/10 00:55:17;;;;;;;8.48;3.80;;;;;;;2.98;100.00;103287.72;5062247;28;20051;-70
2024/01/10 00:57:44;;;;;;;8.95;3.83;;;;;;;2.91;100.00;103290.03;5061007;28;20052;-70
2024/01/10 01:00:11;;;;;;;9.77;3.83;;;;;;;3.11;100.00;103293.31;5071179;28;20067;-70
2024/01/10 01:02:39;;;;;;;9.93;3.80;;;;;;;3.06;100.00;103281.91;5070397;28;20587;-70
2024/01/10 01:05:09;;;;;;;9.27;3.88;;;;;;;2.99;100.00;103298.94;5059538;28;20194;-70
2024/01/10 01:07:36;;;;;;;10.95;4.20;;;;;;;3.07;100.00;103284.56;5063679;28;20051;-70
2024/01/10 01:10:03;;;;;;;12.35;3.85;;;;;;;2.94;100.00;103259.06;5065459;28;20509;-70
2024/01/10 01:12:30;;;;;;;9.43;4.18;;;;;;;2.99;100.00;103275.63;5059085;28;20049;-70
2024/01/10 01:14:57;;;;;;;11.15;4.28;;;;;;;2.88;100.00;103271.81;5066216;28;20075;-70
2024/01/10 01:17:24;;;;;;;9.00;3.92;;;;;;;2.87;100.00;103270.94;5056158;28;20567;-70
2024/01/10 01:19:50;;;;;;;8.82;4.03;;;;;;;3.01;100.00;103284.31;5071663;28;20044;-70
2024/01/10 01:22:17;;;;;;;8.55;3.90;;;;;;;3.01;100.00;103272.28;5062625;28;20048;-70
2024/01/10 01:24:44;;;;;;;11.60;4.45;;;;;;;2.74;100.00;103256.66;5055874;28;20053;-70
2024/01/10 01:27:10;;;;;;;10.27;4.07;;;;;;;3.09;100.00;103269.94;5068051;28;20390;-70
2024/01/10 01:29:37;;;;;;;8.15;3.85;;;;;;;3.08;100.00;103267.31;5068835;28;20633;-70
2024/01/10 01:32:04;;;;;;;10.90;4.57;;;;;;;2.98;100.00;103264.41;5066826;28;20068;-70
2024/01/10 01:34:31;;;;;;;12.70;4.38;;;;;;;2.95;100.00;103273.78;5064597;28;20048;-70
2024/01/10 01:36:57;;;;;;;11.95;4.75;;;;;;;2.85;100.00;103272.56;5054824;28;20060;-70
2024/01/10 01:39:24;;;;;;;11.52;4.95;;;;;;;3.11;100.00;103270.88;5066645;28;20501;-70
2024/01/10 01:41:51;;;;;;;9.52;3.88;;;;;;;3.21;100.00;103261.72;5068015;28;20045;-70
2024/01/10 01:44:18;;;;;;;8.98;3.95;;;;;;;3.23;100.00;103257.47;5067813;28;20059;-70
2024/01/10 01:46:47;;;;;;;9.60;4.32;;;;;;;3.23;100.00;103268.69;5068892;28;20095;-70
2024/01/10 01:49:14;;;;;;;12.95;4.40;;;;;;;3.16;100.00;103261.56;5058121;28;20049;-70
2024/01/10 01:51:41;;;;;;;11.80;5.00;;;;;;;3.26;100.00;103261.88;5058953;28;20083;-70
2024/01/10 01:54:09;;;;;;;10.57;4.47;;;;;;;3.34;100.00;103257.81;5067392;28;20490;-70
2024/01/10 01:56:36;;;;;;;10.10;3.92;;;;;;;3.26;100.00;103257.59;5068425;28;20052;-70
2024/01/10 01:59:05;;;;;;;9.65;4.70;;;;;;;3.12;100.00;103251.94;5071397;28;20047;-70
2024/01/10 02:01:32;;;;;;;9.23;4.00;;;;;;;3.06;100.00;103241.38;5068522;28;20049;-70
2024/01/10 02:04:01;;;;;;;11.15;4.53;;;;;;;2.91;100.00;103215.84;5066341;28;20048;-70
2024/01/10 02:06:28;;;;;;;10.35;4.30;;;;;;;3.26;100.00;103243.75;5061965;28;20052;-70
2024/01/10 02:08:59;;;;;;;10.52;3.95;;;;;;;3.22;100.00;103250.53;5067135;28;20061;-70
2024/01/10 02:11:26;;;;;;;13.65;4.45;;;;;;;2.98;100.00;103253.19;5068441;28;20045;-70
2024/01/10 02:13:56;;;;;;;12.43;4.65;;;;;;;3.10;100.00;103244.94;5065993;28;20130;-70
2024/01/10 02:16:22;;;;;;;12.43;5.70;;;;;;;3.17;100.00;103257.25;5064218;28;20052;-70
2024/01/10 02:18:50;;;;;;;11.32;4.45;;;;;;;3.13;100.00;103260.59;5068231;28;20059;-70
2024/01/10 02:21:21;;;;;;;12.27;4.90;;;;;;;3.07;100.00;103245.72;5071017;28;20045;-70
2024/01/10 02:23:48;;;;;;;10.80;4.80;;;;;;;3.17;100.00;103262.44;5070130;28;20148;-70
2024/01/10 02:26:16;;;;;;;11.10;4.32;;;;;;;3.04;100.00;103262.00;5061557;28;20505;-70
2024/01/10 02:28:42;;;;;;;11.10;4.50;;;;;;;3.09;100.00;103264.78;5062494;28;20054;-70
2024/01/10 02:31:09;;;;;;;10.98;4.30;;;;;;;3.26;100.00;103259.28;5079396;28;20040;-70
2024/01/10 02:33:36;;;;;;;10.50;4.70;;;;;;;3.18;100.00;103259.03;5065983;28;20045;-70
2024/01/10 02:36:03;;;;;;;11.98;4.75;;;;;;;3.22;100.00;103260.88;5058814;28;20473;-70
2024/01/10 02:38:29;;;;;;;11.27;4.63;;;;;;;3.26;100.00;103256.69;5057997;28;20057;-70
2024/01/10 02:40:56;;;;;;;9.10;3.92;;;;;;;3.36;100.00;103245.81;5070682;28;20075;-70
2024/01/10 02:43:23;;;;;;;10.70;4.20;;;;;;;3.25;100.00;103229.06;5068883;28;20045;-70
2024/01/10 02:45:50;;;;;;;9.25;4.40;;;;;;;3.38;100.00;103244.13;5058475;28;20478;-70
2024/01/10 02:48:17;;;;;;;9.63;4.15;;;;;;;3.49;100.00;103245.38;5055872;28;20157;-70
2024/01/10 02:50:43;;;;;;;9.77;4.57;;;;;;;3.29;100.00;103244.72;5070663;28;20132;-70
2024/01/10 02:53:10;;;;;;;11.30;5.18;;;;;;;3.28;100.00;103242.97;5056799;28;20402;-70
2024/01/10 02:55:37;;;;;;;11.18;4.50;;;;;;;3.41;100.00;103250.28;5073746;28;20121;-70
2024/01/10 02:58:03;;;;;;;9.35;4.13;;;;;;;3.33;100.00;103214.63;5059204;28;20470;-70
2024/01/10 03:00:30;;;;;;;11.77;4.20;;;;;;;3.49;100.00;103240.22;5071954;28;20040;-70
2024/01/10 03:02:57;;;;;;;14.02;4.72;;;;;;;3.37;100.00;103234.63;5068715;28;20057;-70
2024/01/10 03:05:23;;;;;;;9.88;4.40;;;;;;;3.59;100.00;103224.13;5082847;28;20074;-70
2024/01/10 03:07:50;;;;;;;14.48;4.50;;;;;;;3.39;100.00;103238.13;5066016;28;20048;-69
2024/01/10 03:10:17;;;;;;;11.05;4.93;;;;;;;3.22;100.00;103225.53;5065734;28;20482;-70
2024/01/10 03:12:44;;;;;;;9.73;4.63;;;;;;;3.38;100.00;103234.69;5067972;28;20071;-70
2024/01/10 03:15:11;;;;;;;9.88;4.45;;;;;;;3.29;100.00;103234.34;5069760;28;20485;-70
2024/01/10 03:17:37;;;;;;;9.27;4.18;;;;;;;3.40;100.00;103225.25;5070901;28;20147;-70
2024/01/10 03:20:05;;;;;;;12.05;4.70;;;;;;;3.51;100.00;103240.25;5071966;28;20055;-70
2024/01/10 03:22:34;;;;;;;10.48;4.50;;;;;;;3.44;100.00;103236.59;5073930;28;20045;-70
2024/01/10 03:25:01;;;;;;;9.75;4.28;;;;;;;3.54;100.00;103220.50;5079016;28;20097;-70
2024/01/10 03:27:28;;;;;;;9.77;4.30;;;;;;;3.60;100.00;103237.94;5073072;28;20458;-70
2024/01/10 03:29:54;;;;;;;11.63;5.03;;;;;;;3.34;100.00;103221.56;5082004;28;20052;-70
2024/01/10 03:32:21;;;;;;;11.05;4.43;;;;;;;3.46;100.00;103224.56;5071580;28;20463;-70
2024/01/10 03:34:51;;;;;;;11.00;4.57;;;;;;;3.40;100.00;103219.19;5070566;28;20101;-70
2024/01/10 03:37:18;;;;;;;9.30;4.00;;;;;;;3.34;100.00;103224.16;5068544;28;20426;-70
2024/01/10 03:39:45;;;;;;;10.05;4.65;;;;;;;3.25;100.00;103226.47;5070586;28;20482;-70
2024/01/10 03:42:11;;;;;;;9.48;4.18;;;;;;;3.48;100.00;103227.19;5066533;28;20052;-70
2024/01/10 03:44:38;;;;;;;9.23;4.38;;;;;;;3.63;100.00;103232.88;5070431;28;20048;-70
2024/01/10 03:47:05;;;;;;;11.10;4.93;;;;;;;3.48;100.00;103225.47;5069413;28;20397;-70
2024/01/10 03:49:32;;;;;;;11.60;5.28;;;;;;;3.16;100.00;103222.72;5070447;28;20098;-70
2024/01/10 03:51:58;;;;;;;11.95;5.07;;;;;;;3.31;100.00;103217.19;5070113;28;20391;-70
2024/01/10 03:54:25;;;;;;;13.13;5.28;;;;;;;3.34;100.00;103212.09;5061174;28;20143;-70
2024/01/10 03:56:52;;;;;;;12.07;4.60;;;;;;;3.34;100.00;103216.41;5060196;28;20055;-70
2024/01/10 03:59:18;;;;;;;11.52;4.25;;;;;;;3.45;100.00;103216.72;5073602;28;20500;-70
2024/01/10 04:01:45;;;;;;;11.93;4.65;;;;;;;3.51;100.00;103214.34;5069876;28;20153;-70
2024/01/10 04:04:12;;;;;;;11.10;4.80;;;;;;;3.39;100.00;103201.88;5069506;28;20094;-70
2024/01/10 04:06:38;;;;;;;11.77;4.22;;;;;;;3.42;100.00;103208.03;5067336;28;20482;-70
2024/01/10 04:09:08;;;;;;;12.18;4.50;;;;;;;3.54;100.00;103198.88;5064905;28;20310;-70
2024/01/10 04:11:34;;;;;;;11.02;4.57;;;;;;;3.50;100.00;103207.41;5067890;28;20142;-70
2024/01/10 04:14:01;;;;;;;12.10;4.50;;;;;;;3.60;100.00;103201.69;5068434;28;20056;-70
2024/01/10 04:16:28;;;;;;;11.02;4.75;;;;;;;3.42;100.00;103200.28;5069890;28;20406;-70
2024/01/10 04:18:55;;;;;;;9.55;4.22;;;;;;;3.51;100.00;103201.41;5072070;28;20052;-70
2024/01/10 04:21:22;;;;;;;10.40;4.40;;;;;;;3.48;100.00;103183.16;5067563;28;20094;-70
2024/01/10 04:23:48;;;;;;;8.32;3.95;;;;;;;3.61;100.00;103182.69;5075857;28;20048;-70
2024/01/10 04:26:15;;;;;;;9.43;4.18;;;;;;;3.55;100.00;103204.13;5062484;28;20394;-70
2024/01/10 04:28:42;;;;;;;10.70;5.15;;;;;;;3.56;100.00;103184.25;5083342;28;20097;-70
2024/01/10 04:31:09;;;;;;;11.13;4.15;;;;;;;3.57;100.00;103189.50;5071831;28;20401;-70
2024/01/10 04:33:36;;;;;;;11.30;4.95;;;;;;;3.50;100.00;103194.44;5077261;28;20072;-70
2024/01/10 04:36:03;;;;;;;11.23;5.00;;;;;;;3.48;100.00;103186.63;5075138;28;20361;-70
2024/01/10 04:38:29;;;;;;;11.07;4.95;;;;;;;3.44;100.00;103183.91;5071633;28;20068;-70
2024/01/10 04:40:56;;;;;;;9.43;4.15;;;;;;;3.42;100.00;103189.03;5071703;28;20426;-70
2024/01/10 04:43:23;;;;;;;10.50;4.72;;;;;;;3.41;100.00;103195.03;5080011;28;20531;-70
2024/01/10 04:45:49;;;;;;;11.32;4.65;;;;;;;3.49;100.00;103192.69;5070543;28;20063;-70
2024/01/10 04:48:16;;;;;;;10.50;4.68;;;;;;;3.28;100.00;103196.38;5072527;28;20048;-70
2024/01/10 04:50:43;;;;;;;16.80;4.78;;;;;;;3.57;100.00;103191.22;5069874;28;20048;-70
2024/01/10 04:53:09;;;;;;;10.82;4.63;;;;;;;3.61;100.00;103182.69;5069512;28;20691;-70
2024/01/10 04:55:36;;;;;;;10.93;4.65;;;;;;;3.53;100.00;103176.41;5069775;28;20490;-70
2024/01/10 04:58:03;;;;;;;12.30;4.55;;;;;;;3.36;100.00;103176.75;5074368;28;20132;-71
2024/01/10 05:00:30;;;;;;;11.30;4.97;;;;;;;3.46;100.00;103185.69;5063501;28;20513;-70
2024/01/10 05:02:57;;;;;;;11.10;4.88;;;;;;;3.49;100.00;103185.81;5063187;28;20052;-70
2024/01/10 05:05:24;;;;;;;12.50;5.28;;;;;;;3.38;100.00;103179.41;5069433;28;20045;-70
2024/01/10 05:07:51;;;;;;;11.05;5.03;;;;;;;3.18;100.00;103181.34;5069571;28;20056;-71
2024/01/10 05:10:18;;;;;;;10.35;4.72;;;;;;;3.36;100.00;103178.47;5056713;28;20045;-70
2024/01/10 05:12:45;;;;;;;10.65;4.75;;;;;;;3.45;100.00;103186.53;5059706;28;20052;-70
2024/01/10 05:15:11;;;;;;;11.13;4.90;;;;;;;3.34;100.00;103155.13;5055725;28;20049;-70
2024/01/10 05:17:38;;;;;;;9.55;4.95;;;;;;;3.44;100.00;103187.38;5063573;28;20057;-70
2024/01/10 05:20:05;;;;;;;12.73;4.72;;;;;;;3.42;100.00;103176.97;5066803;28;20067;-70
2024/01/10 05:22:32;;;;;;;10.50;5.13;;;;;;;3.28;100.00;103187.72;5068663;28;20478;-70
2024/01/10 05:24:59;;;;;;;10.20;4.35;;;;;;;3.28;100.00;103164.41;5068079;28;20493;-71
2024/01/10 05:27:26;;;;;;;11.18;5.28;;;;;;;3.29;100.00;103189.47;5068033;28;20143;-70
2024/01/10 05:29:53;;;;;;;13.75;7.13;;;;;;;3.21;100.00;103178.88;5069779;28;20049;-70
2024/01/10 05:32:20;;;;;;;10.68;4.38;;;;;;;3.40;100.00;103178.63;5067230;28;20044;-70
2024/01/10 05:34:47;;;;;;;11.73;5.20;;;;;;;3.40;100.00;103168.28;5068007;28;20126;-70
2024/01/10 05:37:14;;;;;;;11.63;4.80;;;;;;;3.52;100.00;103177.25;5062190;28;20138;-70
2024/01/10 05:39:41;;;;;;;11.50;4.97;;;;;;;3.46;100.00;103174.47;5068577;28;20053;-70
2024/01/10 05:42:08;;;;;;;12.52;4.78;;;;;;;3.34;100.00;103168.06;5070720;28;20466;-70
2024/01/10 05:44:35;;;;;;;11.32;5.07;;;;;;;3.30;100.00;103180.88;5069139;28;20043;-70
2024/01/10 05:47:02;;;;;;;12.27;4.85;;;;;;;3.38;100.00;103161.25;5080276;28;20056;-70
2024/01/10 05:49:29;;;;;;;10.98;5.25;;;;;;;3.39;100.00;103161.31;5072815;28;20060;-70
2024/01/10 05:51:56;;;;;;;11.45;5.22;;;;;;;3.14;100.00;103176.94;5066454;28;20053;-71
2024/01/10 05:54:22;;;;;;;10.40;5.13;;;;;;;3.23;100.00;103177.22;5068789;28;20135;-70
2024/01/10 05:56:49;;;;;;;14.00;5.68;;;;;;;3.26;100.00;103160.88;5067659;28;20053;-70
2024/01/10 05:59:16;;;;;;;13.80;5.22;;;;;;;3.37;100.00;103167.28;5074410;28;20101;-70
2024/01/10 06:01:43;;;;;;;11.27;5.38;;;;;;;3.33;100.00;103161.13;5073490;28;20080;-71
2024/01/10 06:04:10;;;;;;;11.65;4.68;;;;;;;3.56;100.00;103163.53;5073113;28;20078;-70
2024/01/10 06:06:36;;;;;;;14.05;5.18;;;;;;;3.46;100.00;103164.13;5069420;28;20471;-70
2024/01/10 06:09:03;;;;;;;10.55;4.90;;;;;;;3.56;100.00;103159.25;5072975;28;20414;-70
2024/01/10 06:11:30;;;;;;;12.95;4.97;;;;;;;3.47;100.00;103171.03;5079457;28;20480;-70
2024/01/10 06:13:57;;;;;;;12.75;4.95;;;;;;;3.60;100.00;103171.47;5068135;28;20056;-70
2024/01/10 06:16:24;;;;;;;12.18;5.50;;;;;;;3.45;100.00;103172.69;5072640;28;20402;-70
2024/01/10 06:18:51;;;;;;;13.48;5.53;;;;;;;3.60;100.00;103171.47;5064127;28;20489;-70
2024/01/10 06:21:18;;;;;;;11.52;5.15;;;;;;;3.42;100.00;103187.31;5064521;28;20080;-70
2024/01/10 06:23:44;;;;;;;11.10;5.55;;;;;;;3.52;100.00;103170.34;5065408;28;20056;-70
2024/01/10 06:26:11;;;;;;;11.77;4.90;;;;;;;3.61;100.00;103185.28;5067817;28;20079;-70
2024/01/10 06:28:38;;;;;;;11.07;4.70;;;;;;;3.43;100.00;103162.28;5074350;28;20057;-70
2024/01/10 06:31:05;;;;;;;12.07;5.30;;;;;;;3.38;100.00;103174.22;5057465;28;20474;-70
2024/01/10 06:33:36;;;;;;;10.30;4.85;;;;;;;3.50;100.00;103172.00;5067591;28;20127;-70
2024/01/10 06:36:03;;;;;;;12.02;5.25;;;;;;;3.53;100.00;103174.69;5070837;28;20070;-70
2024/01/10 06:38:30;;;;;;;10.88;4.57;;;;;;;3.51;100.00;103173.78;5075657;28;20040;-71
2024/01/10 06:40:56;;;;;;;12.50;4.80;;;;;;;3.40;100.00;103164.81;5067082;28;20045;-71
2024/01/10 06:43:23;;;;;;;12.25;5.68;;;;;;;3.30;100.00;103160.16;5060591;28;20059;-71
2024/01/10 06:45:50;;;;;;;11.52;4.65;;;;;;;3.38;100.00;103154.41;5054636;28;20053;-71
2024/01/10 06:48:18;;;;;;;11.50;5.07;;;;;;;3.31;100.00;103159.31;5064436;28;20049;-71
2024/01/10 06:50:45;;;;;;;11.85;4.50;;;;;;;3.56;100.00;103158.34;5063110;28;20084;-71
2024/01/10 06:53:12;;;;;;;10.50;4.80;;;;;;;3.53;100.00;103164.34;5067191;28;20051;-71
2024/01/10 06:55:39;;;;;;;12.32;5.15;;;;;;;3.54;100.00;103167.78;5060982;28;20049;-71
2024/01/10 06:58:05;;;;;;;11.32;5.32;;;;;;;3.48;100.00;103168.50;5061630;28;20064;-71
2024/01/10 07:00:32;;;;;;;11.07;5.07;;;;;;;3.45;100.00;103151.97;5060688;28;20397;-71
2024/01/10 07:03:02;;;;;;;12.38;4.85;;;;;;;3.50;100.00;103166.81;5056688;28;20072;-71
2024/01/10 07:05:31;;;;;;;10.85;4.60;;;;;;;3.48;100.00;103167.63;5064561;28;20052;-70
2024/01/10 07:07:59;;;;;;;9.82;4.30;;;;;;;3.60;100.00;103173.19;5064804;28;20056;-71
2024/01/10 07:10:27;;;;;;;10.45;4.60;;;;;;;3.64;100.00;103174.16;5051562;28;20153;-71
2024/01/10 07:12:55;;;;;;;10.15;4.90;;;;;;;3.66;100.00;103175.06;5065513;28;20173;-72
2024/01/10 07:15:22;;;;;;;10.52;4.38;;;;;;;3.71;100.00;103181.28;5062987;28;20048;-72
2024/01/10 07:17:49;;;;;;;10.40;5.05;;;;;;;3.66;100.00;103168.16;5071090;28;20157;-71
2024/01/10 07:20:15;;;;;;;9.57;4.25;;;;;;;3.63;100.00;103172.38;5057347;28;20083;-72
2024/01/10 07:22:43;;;;;;;8.57;3.78;;;;;;;3.73;100.00;103169.25;5073549;28;20149;-72
2024/01/10 07:25:14;;;;;;;10.52;5.35;;;;;;;3.82;100.00;103166.03;5064066;28;20076;-72
2024/01/10 07:27:41;;;;;;;12.65;5.13;;;;;;;3.73;100.00;103182.19;5068522;28;20206;-72
2024/01/10 07:30:14;;;;;;;10.18;4.53;;;;;;;3.87;100.00;103174.84;5073622;28;20047;-72
2024/01/10 07:32:45;;;;;;;11.43;4.95;;;;;;;3.85;100.00;103192.94;5056211;28;20501;-72
2024/01/10 07:35:15;;;;;;;11.40;4.35;;;;;;;3.68;100.00;103183.75;5067705;28;20045;-72
2024/01/10 07:37:43;;;;;;;10.00;4.53;;;;;;;3.72;100.00;103170.97;5053768;28;20045;-71
2024/01/10 07:40:13;;;;;;;11.07;4.82;;;;;;;3.59;100.00;103182.69;5058934;28;20052;-72
2024/01/10 07:42:40;;;;;;;11.38;5.22;;;;;;;3.72;100.00;103186.50;5065954;28;20048;-72
2024/01/10 07:45:08;;;;;;;10.80;4.90;;;;;;;3.57;100.00;103183.44;5069953;28;20055;-71
2024/01/10 07:47:37;;;;;;;9.27;3.88;;;;;;;3.64;100.00;103194.88;5065281;28;20048;-71
2024/01/10 07:50:08;;;;;;;10.85;4.22;;;;;;;3.76;100.00;103201.31;5066926;28;20045;-72
2024/01/10 07:52:36;;;;;;;10.70;4.78;;;;;;;3.56;100.00;103197.22;5067043;28;20110;-71
2024/01/10 07:55:06;;;;;;;13.65;4.95;;;;;;;3.63;100.00;103199.19;5068287;28;20059;-72
2024/01/10 07:57:42;;;;;;;10.15;4.75;;;;;;;3.87;100.00;103211.13;5059135;28;20056;-72
2024/01/10 08:00:10;;;;;;;9.35;4.22;;;;;;;3.81;100.00;103206.63;5068407;28;20052;-72
2024/01/10 08:02:40;;;;;;;14.25;4.50;;;;;;;3.92;100.00;103214.72;5054787;28;20075;-72
2024/01/10 08:05:10;;;;;;;18.23;5.85;;;;;;;3.67;100.00;103208.81;5056419;28;20402;-71
2024/01/10 08:07:38;;;;;;;11.07;4.20;;;;;;;3.72;100.00;103206.34;5059921;28;20053;-72
2024/01/10 08:10:07;;;;;;;9.15;4.38;;;;;;;3.84;100.00;103213.63;5054357;28;20045;-71
2024/01/10 08:12:34;;;;;;;9.55;4.32;;;;;;;3.82;100.00;103210.09;5064849;28;20048;-71
2024/01/10 08:15:01;;;;;;;9.35;4.43;;;;;;;3.63;100.00;103211.25;5067284;28;20045;-72
2024/01/10 08:17:28;;;;;;;20.60;5.05;;;;;;;3.66;100.00;103208.75;5056847;28;20051;-72
2024/01/10 08:19:55;;;;;;;10.45;4.93;;;;;;;3.51;100.00;103168.59;5070253;28;20490;-71
2024/01/10 08:22:22;;;;;;;9.95;4.55;;;;;;;3.55;100.00;103195.47;5069132;28;20452;-72
2024/01/10 08:24:52;;;;;;;8.90;3.88;;;;;;;3.64;100.00;103202.66;5070478;28;20110;-72
2024/01/10 08:27:19;;;;;;;9.25;3.25;;;;;;;3.45;100.00;103183.94;5070923;28;20052;-72
2024/01/10 08:29:47;;;;;;;8.95;4.07;;;;;;;3.50;100.00;103191.84;5074880;28;20055;-71
2024/01/10 08:32:15;;;;;;;9.15;3.60;;;;;;;3.57;100.00;103205.03;5070535;28;20040;-72
2024/01/10 08:34:42;;;;;;;10.38;4.80;;;;;;;3.48;100.00;103209.06;5066795;28;20062;-72
2024/01/10 08:37:08;;;;;;;10.45;4.72;;;;;;;3.38;100.00;103206.19;5069971;28;20044;-72
2024/01/10 08:39:35;;;;;;;10.00;4.72;;;;;;;3.56;100.00;103210.16;5070275;28;20049;-72
2024/01/10 08:42:02;;;;;;;9.77;4.13;;;;;;;3.64;100.00;103219.06;5069402;28;20045;-71
2024/01/10 08:44:29;;;;;;;10.60;4.65;;;;;;;3.80;100.00;103210.91;5070459;28;20063;-72
2024/01/10 08:46:55;;;;;;;12.05;4.72;;;;;;;3.80;100.00;103218.69;5069584;28;20052;-72
2024/01/10 08:49:22;;;;;;;9.63;4.28;;;;;;;3.78;100.00;103206.53;5068232;28;20541;-72
2024/01/10 08:51:49;;;;;;;12.30;5.80;;;;;;;3.95;100.00;103209.66;5068371;28;20048;-72
2024/01/10 08:54:19;;;;;;;10.23;4.50;;;;;;;3.88;100.00;103207.69;5068860;28;20057;-71
2024/01/10 08:56:46;;;;;;;12.60;5.57;;;;;;;3.94;100.00;103216.53;5068004;28;20063;-72
2024/01/10 08:59:13;;;;;;;12.18;4.45;;;;;;;3.97;100.00;103210.56;5068532;28;20409;-71
2024/01/10 09:01:40;;;;;;;12.20;5.18;;;;;;;4.09;100.00;103220.41;5068080;28;20048;-72
2024/01/10 09:04:06;;;;;;;11.35;5.45;;;;;;;3.90;100.00;103186.16;5069529;28;20136;-71
2024/01/10 09:06:33;;;;;;;10.27;4.03;;;;;;;4.00;100.00;103221.00;5070477;28;20452;-71
2024/01/10 09:09:01;;;;;;;13.70;4.63;;;;;;;4.12;100.00;103220.50;5069975;28;20084;-71
2024/01/10 09:11:27;;;;;;;13.63;5.63;;;;;;;4.02;100.00;103218.47;5069430;28;20079;-71
2024/01/10 09:13:54;;;;;;;11.55;5.30;;;;;;;4.09;100.00;103223.88;5068674;28;20060;-71
2024/01/10 09:16:21;;;;;;;10.07;4.50;;;;;;;4.09;100.00;103228.16;5057189;28;20287;-71
2024/01/10 09:18:49;;;;;;;10.55;4.50;;;;;;;4.29;100.00;103233.97;5064272;28;20052;-71
2024/01/10 09:21:19;;;;;;;11.27;4.70;;;;;;;4.27;100.00;103236.50;5058245;28;20055;-71
2024/01/10 09:23:47;;;;;;;10.32;4.97;;;;;;;4.23;100.00;103234.63;5066294;28;20048;-71
2024/01/10 09:26:14;;;;;;;10.70;4.90;;;;;;;4.35;100.00;103236.72;5061890;28;20052;-71
2024/01/10 09:28:41;;;;;;;11.13;5.00;;;;;;;4.25;100.00;103224.31;5063403;28;20048;-71
2024/01/10 09:31:07;;;;;;;13.02;5.13;;;;;;;4.37;100.00;103235.03;5060185;28;20055;-71
2024/01/10 09:33:34;;;;;;;13.07;5.30;;;;;;;4.26;100.00;103232.13;5057711;28;20091;-71
2024/01/10 09:36:01;;;;;;;10.98;5.25;;;;;;;4.30;100.00;103236.59;5064107;28;20052;-71
2024/01/10 09:38:27;;;;;;;11.07;4.97;;;;;;;4.14;100.00;103231.78;5067226;28;20040;-72
2024/01/10 09:41:02;;;;;;;11.05;4.90;;;;;;;4.38;100.00;103239.41;5069923;28;20538;-71
2024/01/10 09:43:30;;;;;;;9.73;4.00;;;;;;;4.11;100.00;103214.44;5055054;28;20045;-71
2024/01/10 09:45:58;;;;;;;10.27;4.65;;;;;;;4.22;100.00;103242.41;5066231;28;20144;-71
2024/01/10 09:48:25;;;;;;;9.73;3.92;;;;;;;4.25;100.00;103238.19;5056998;28;20049;-71
2024/01/10 09:50:52;;;;;;;10.73;4.57;;;;;;;4.00;100.00;103228.78;5059692;28;20052;-71
2024/01/10 09:53:23;;;;;;;11.52;4.22;;;;;;;4.28;100.00;103234.78;5070043;28;20448;-71
2024/01/10 09:55:50;;;;;;;11.05;4.13;;;;;;;4.18;100.00;103228.47;5058741;28;20060;-71
2024/01/10 09:58:17;;;;;;;9.60;4.32;;;;;;;4.44;100.00;103236.09;5057673;28;20196;-71
2024/01/10 10:00:44;;;;;;;10.45;4.43;;;;;;;4.17;100.00;103243.13;5068586;28;20486;-71
2024/01/10 10:03:12;;;;;;;11.65;5.40;;;;;;;4.40;100.00;103255.00;5065657;28;20047;-71
2024/01/10 10:05:41;;;;;;;10.73;4.70;;;;;;;4.25;100.00;103247.66;5064870;28;20052;-71
2024/01/10 10:08:11;;;;;;;12.20;4.50;;;;;;;4.25;100.00;103251.16;5067311;28;20044;-72
2024/01/10 10:10:44;;;;;;;11.32;5.10;;;;;;;4.09;100.00;103231.66;5072120;28;20122;-72
2024/01/10 10:13:25;;;;;;;11.45;5.07;;;;;;;4.26;100.00;103242.50;5069728;28;20128;-72
2024/01/10 10:16:02;;;;;;;9.27;4.70;;;;;;;4.40;100.00;103255.00;5064935;28;20403;-71
2024/01/10 10:18:31;;;;;;;12.70;4.88;;;;;;;4.11;100.00;103261.09;5070248;28;20051;-71
2024/01/10 10:21:12;;;;;;;11.40;5.40;;;;;;;4.20;100.00;103255.31;5070882;28;20504;-71
2024/01/10 10:23:57;;;;;;;10.35;5.03;;;;;;;4.38;100.00;103271.41;5066388;28;20474;-72
2024/01/10 10:26:26;;;;;;;10.77;4.38;;;;;;;4.47;100.00;103277.69;5052514;28;20055;-71
2024/01/10 10:28:53;;;;;;;12.45;5.90;;;;;;;4.54;100.00;103282.22;5070469;28;20059;-72
2024/01/10 10:31:20;;;;;;;12.00;5.40;;;;;;;4.50;100.00;103281.25;5066028;28;20049;-71
2024/01/10 10:33:52;;;;;;;14.23;5.45;;;;;;;4.69;100.00;103289.53;5062916;28;20903;-71
2024/01/10 10:36:20;;;;;;;11.95;6.38;;;;;;;4.67;100.00;103284.31;5066512;28;20064;-71
2024/01/10 10:38:48;;;;;;;14.25;4.40;;;;;;;4.73;100.00;103289.69;5064946;28;20405;-71
2024/01/10 10:41:15;;;;;;;14.40;5.80;;;;;;;4.53;100.00;103283.94;5070659;28;20508;-72
2024/01/10 10:43:42;;;;;;;13.13;5.57;;;;;;;4.55;100.00;103271.88;5069009;28;20084;-71
2024/01/10 10:46:12;;;;;;;13.57;6.30;;;;;;;4.72;100.00;103293.09;5063486;28;20053;-72
2024/01/10 10:48:39;;;;;;;11.90;4.68;;;;;;;4.72;100.00;103287.03;5057413;28;20136;-71
2024/01/10 10:51:11;;;;;;;11.63;5.03;;;;;;;4.75;100.00;103279.34;5071106;28;20044;-71
2024/01/10 10:53:43;;;;;;;9.00;4.03;;;;;;;4.79;100.00;103282.91;5062848;28;20473;-72
2024/01/10 10:56:11;;;;;;;12.18;5.10;;;;;;;4.74;100.00;103272.38;5070917;28;20067;-72
2024/01/10 10:58:46;;;;;;;12.10;5.75;;;;;;;4.77;100.00;103282.00;5059473;28;20088;-71
2024/01/10 11:01:14;;;;;;;13.52;6.10;;;;;;;4.87;100.00;103271.91;5060640;28;20098;-72
2024/01/10 11:03:44;;;;;;;11.93;5.55;;;;;;;4.88;100.00;103275.34;5057024;28;20080;-71
2024/01/10 11:06:11;;;;;;;11.27;5.85;;;;;;;4.75;100.00;103267.25;5065651;28;20480;-71
2024/01/10 11:08:43;;;;;;;10.13;5.05;;;;;;;4.75;100.00;103272.44;5071332;28;20102;-71
2024/01/10 11:12:09;;;;;;;13.25;5.90;;;;;;;4.84;100.00;103271.81;5066336;28;20052;-71
2024/01/10 11:14:57;;;;;;;11.38;5.50;;;;;;;4.98;100.00;103261.78;5023097;28;20055;-72
2024/01/10 11:17:43;;;;;;;11.65;4.90;;;;;;;5.02;100.00;103258.41;5052815;28;20052;-72
2024/01/10 11:20:25;;;;;;;9.40;4.10;;;;;;;5.10;100.00;103256.03;5069388;28;20052;-71
2024/01/10 11:23:04;;;;;;;13.18;3.97;;;;;;;5.16;100.00;103261.38;5067964;28;20128;-71